Time;durP1;ratioP1;P1;durP2;ratioP2;P2;SDS_P1;SDS_P2;PMS_P1;PMS_P2;Temp;Humidity;BMP_temperature;BMP_pressure;BME280_temperature;BME280_humidity;BME280_pressure;Samples;Min_cycle;Max_cycle;Signal;HPM_P1;HPM_P2
2022/03/18 00:02:29;;;;;;;32.67;15.78;;;;;;;5.19;60.26;102768.19;4944793;57;1138904;-70
2022/03/18 00:07:36;;;;;;;29.60;16.23;;;;;;;5.13;59.61;102764.81;5012165;57;1138827;-70
2022/03/18 00:12:42;;;;;;;31.67;15.77;;;;;;;5.06;59.61;102771.05;5037610;56;1138876;-70
2022/03/18 00:17:47;;;;;;;31.50;15.67;;;;;;;4.99;59.61;102772.08;4968775;56;1138886;-70
2022/03/18 00:22:53;;;;;;;34.23;16.03;;;;;;;4.94;59.74;102774.77;4896717;58;1139022;-70
2022/03/18 00:27:59;;;;;;;32.93;15.50;;;;;;;4.89;59.59;102772.66;4988079;56;1138837;-70
2022/03/18 00:33:06;;;;;;;31.63;14.13;;;;;;;4.83;58.85;102780.66;4971835;57;1138969;-70
2022/03/18 00:38:13;;;;;;;30.03;13.57;;;;;;;4.78;59.25;102782.48;5024136;57;1139127;-71
2022/03/18 00:43:20;;;;;;;24.77;12.37;;;;;;;4.72;58.55;102787.85;5006707;56;1138984;-71
2022/03/18 00:53:48;;;;;;;36.07;13.57;;;;;;;4.65;58.55;102798.01;5008409;57;1139005;-69
2022/03/18 00:58:54;;;;;;;28.27;12.20;;;;;;;4.59;58.23;102795.89;4962451;57;1138722;-70
2022/03/18 01:04:00;;;;;;;28.10;13.80;;;;;;;4.56;58.32;102799.03;4962788;57;1138921;-70
2022/03/18 01:09:06;;;;;;;28.80;13.13;;;;;;;4.56;58.55;102809.08;4962877;57;1138845;-70
2022/03/18 01:14:12;;;;;;;25.37;12.03;;;;;;;4.53;58.46;102808.25;5012957;56;1138912;-69
2022/03/18 01:19:18;;;;;;;28.65;12.80;;;;;;;4.50;58.36;102810.91;5054635;57;1138835;-69
2022/03/18 01:24:23;;;;;;;29.83;12.57;;;;;;;4.44;57.99;102807.06;5049387;57;1138809;-69
2022/03/18 01:29:29;;;;;;;31.07;12.30;;;;;;;4.40;58.24;102810.64;4932320;57;1142174;-69
2022/03/18 01:34:35;;;;;;;24.82;11.85;;;;;;;4.37;57.99;102824.66;4958184;57;1138946;-70
2022/03/18 01:39:41;;;;;;;22.67;10.90;;;;;;;4.34;58.00;102823.38;5039748;56;1138896;-69
2022/03/18 01:44:47;;;;;;;22.47;11.90;;;;;;;4.29;57.83;102825.63;5058212;56;1138892;-69
2022/03/18 01:49:53;;;;;;;27.23;11.60;;;;;;;4.22;57.79;102828.81;5018071;57;1138815;-68
2022/03/18 01:54:59;;;;;;;23.53;10.53;;;;;;;4.20;58.07;102835.81;5057365;56;1139049;-69
2022/03/18 02:00:07;;;;;;;28.23;12.27;;;;;;;4.17;58.13;102839.34;5095583;57;1139179;-69
2022/03/18 02:05:14;;;;;;;28.27;12.37;;;;;;;4.13;58.01;102844.19;5095755;57;1138850;-70
2022/03/18 02:10:20;;;;;;;24.00;10.80;;;;;;;4.08;58.04;102843.41;5096112;57;1138757;-69
2022/03/18 02:15:26;;;;;;;23.53;11.43;;;;;;;4.02;57.84;102851.33;5095132;57;1177439;-69
2022/03/18 02:20:32;;;;;;;26.15;11.93;;;;;;;3.97;57.92;102856.22;5096108;56;1142043;-69
2022/03/18 02:25:38;;;;;;;29.65;11.70;;;;;;;3.89;57.85;102861.09;5096069;56;1138823;-69
2022/03/18 02:30:44;;;;;;;24.95;10.93;;;;;;;3.88;58.02;102872.89;5096079;57;1138928;-69
2022/03/18 02:35:54;;;;;;;26.83;13.30;;;;;;;3.84;58.12;102877.30;5095701;56;1138864;-69
2022/03/18 02:41:00;;;;;;;29.13;12.00;;;;;;;3.82;58.09;102879.05;5095517;57;1138779;-70
2022/03/18 02:46:06;;;;;;;30.20;10.90;;;;;;;3.77;57.99;102878.70;5095658;56;1138692;-69
2022/03/18 02:51:13;;;;;;;28.87;12.23;;;;;;;3.72;58.05;102883.98;5061745;56;1138790;-69
2022/03/18 02:56:19;;;;;;;21.73;11.30;;;;;;;3.68;57.84;102876.17;5094562;57;1138669;-70
2022/03/18 03:01:27;;;;;;;28.37;12.43;;;;;;;3.59;57.92;102880.22;5094568;57;1138835;-69
2022/03/18 03:12:01;;;;;;;27.23;11.27;;;;;;;3.53;58.08;102900.32;5094652;56;1138694;-69
2022/03/18 03:17:04;;;;;;;27.47;11.53;;;;;;;3.48;58.14;102912.60;5093967;57;1138812;-70
2022/03/18 03:22:10;;;;;;;22.17;10.30;;;;;;;3.48;58.24;102918.27;5094925;57;1139063;-69
2022/03/18 03:27:16;;;;;;;25.73;11.17;;;;;;;3.46;58.28;102920.91;5094810;56;1138821;-69
2022/03/18 03:32:22;;;;;;;28.67;11.60;;;;;;;3.47;58.39;102933.55;5095458;56;1138848;-69
2022/03/18 03:37:29;;;;;;;25.62;10.75;;;;;;;3.45;58.41;102935.30;5112408;56;1138824;-71
2022/03/18 03:42:35;;;;;;;25.80;11.73;;;;;;;3.43;57.94;102940.98;5094962;56;1139075;-69
2022/03/18 03:47:42;;;;;;;27.13;10.83;;;;;;;3.33;58.13;102942.83;5094872;56;1138841;-70
2022/03/18 03:52:48;;;;;;;24.63;10.77;;;;;;;3.25;58.14;102959.45;5094741;56;1138812;-69
2022/03/18 03:57:54;;;;;;;30.13;11.17;;;;;;;3.26;58.26;102965.11;5094617;56;1139065;-69
2022/03/18 04:03:00;;;;;;;26.53;12.43;;;;;;;3.24;58.35;102962.50;5094586;56;1138827;-69
2022/03/18 04:08:06;;;;;;;28.33;11.87;;;;;;;3.23;58.35;102965.13;5094789;56;1138954;-69
2022/03/18 04:13:12;;;;;;;20.73;10.33;;;;;;;3.22;58.33;102969.48;5098214;56;1139089;-69
2022/03/18 04:18:18;;;;;;;28.90;13.13;;;;;;;3.18;58.40;102976.52;5119394;56;1138835;-69
2022/03/18 04:23:24;;;;;;;26.90;14.13;;;;;;;3.15;58.39;102986.98;5093831;57;1139107;-70
2022/03/18 04:28:30;;;;;;;47.47;20.23;;;;;;;3.08;58.25;102981.36;5010772;57;1138914;-70
2022/03/18 04:33:36;;;;;;;45.95;19.48;;;;;;;3.04;58.38;102992.74;5030812;56;1138862;-70
2022/03/18 04:38:41;;;;;;;38.92;17.52;;;;;;;2.99;58.32;103006.27;4971221;57;1138922;-70
2022/03/18 04:43:48;;;;;;;29.93;13.80;;;;;;;2.94;58.41;103005.86;5095512;56;1138999;-70
2022/03/18 04:48:54;;;;;;;51.70;22.50;;;;;;;2.89;58.50;103002.43;5096722;56;1138925;-69
2022/03/18 04:54:00;;;;;;;80.60;39.77;;;;;;;2.83;58.62;103020.31;4955691;57;1138855;-69
2022/03/18 04:59:06;;;;;;;42.70;17.83;;;;;;;2.78;58.67;103023.37;5071436;56;1138827;-69
2022/03/18 05:04:11;;;;;;;27.90;11.83;;;;;;;2.74;58.80;103029.08;5061042;55;1138809;-68
2022/03/18 05:09:17;;;;;;;37.00;13.07;;;;;;;2.70;58.93;103035.19;5043450;56;1138949;-69
2022/03/18 05:14:23;;;;;;;30.67;12.53;;;;;;;2.68;59.07;103038.24;5044015;56;1139135;-68
2022/03/18 05:19:30;;;;;;;39.36;15.24;;;;;;;2.64;59.02;103044.78;5061491;56;1138867;-71
2022/03/18 05:24:36;;;;;;;44.38;16.17;;;;;;;2.62;59.08;103055.23;5027382;56;1139247;-68
2022/03/18 05:29:42;;;;;;;50.50;21.27;;;;;;;2.60;59.17;103055.68;5043959;56;1139011;-69
2022/03/18 05:34:48;;;;;;;67.75;21.37;;;;;;;2.56;59.08;103065.73;5044600;56;1139199;-69
2022/03/18 05:39:54;;;;;;;38.00;13.13;;;;;;;2.48;59.06;103060.95;5044235;56;1139167;-68
2022/03/18 05:45:00;;;;;;;42.47;17.07;;;;;;;2.47;59.30;103067.92;5044140;56;1139003;-69
2022/03/18 05:50:08;;;;;;;29.12;13.18;;;;;;;2.44;59.02;103080.98;5117667;56;1139040;-68
2022/03/18 05:55:14;;;;;;;32.63;13.03;;;;;;;2.35;58.96;103086.25;5128553;55;1138927;-69
2022/03/18 06:00:20;;;;;;;35.50;13.00;;;;;;;2.33;59.13;103094.52;5128507;55;1139306;-69
2022/03/18 06:05:25;;;;;;;28.27;12.83;;;;;;;2.29;59.23;103101.91;5171615;55;1138824;-69
2022/03/18 06:15:54;;;;;;;38.27;13.73;;;;;;;2.27;59.25;103107.60;5194449;55;1139232;-70
2022/03/18 06:21:00;;;;;;;30.50;13.17;;;;;;;2.26;59.41;103120.66;5206133;55;1139012;-69
2022/03/18 06:26:06;;;;;;;32.83;12.83;;;;;;;2.27;59.73;103121.97;5188015;55;1138604;-68
2022/03/18 06:31:12;;;;;;;44.10;15.07;;;;;;;2.35;59.83;103126.72;5057395;56;1138720;-69
2022/03/18 06:36:18;;;;;;;33.10;13.13;;;;;;;2.45;59.58;103141.92;5057237;56;1138685;-69
2022/03/18 06:41:25;;;;;;;31.33;13.93;;;;;;;2.51;59.87;103147.15;5057484;55;1139172;-69
2022/03/18 06:46:30;;;;;;;30.73;14.47;;;;;;;2.62;60.21;103149.29;5056128;56;1213416;-69
2022/03/18 06:51:37;;;;;;;42.97;15.87;;;;;;;2.70;59.49;103159.30;5057073;55;1138706;-69
2022/03/18 06:56:44;;;;;;;31.33;12.47;;;;;;;2.78;59.85;103162.75;5057309;56;1139132;-69
2022/03/18 07:01:49;;;;;;;35.88;14.70;;;;;;;2.88;58.90;103172.75;5056343;56;1138738;-69
2022/03/18 07:06:55;;;;;;;37.50;13.73;;;;;;;2.97;58.77;103175.33;5056436;56;1138893;-69
2022/03/18 07:12:01;;;;;;;39.43;14.90;;;;;;;3.04;58.56;103174.44;5056823;56;1138639;-69
2022/03/18 07:22:31;;;;;;;85.97;40.27;;;;;;;3.26;58.02;103187.41;5057324;56;1138919;-68
2022/03/18 07:27:36;;;;;;;38.30;16.33;;;;;;;3.41;58.60;103186.89;5013493;56;1138890;-69
2022/03/18 07:32:42;;;;;;;38.77;18.77;;;;;;;3.59;56.90;103198.14;4983149;57;1138711;-69
2022/03/18 07:37:49;;;;;;;26.93;11.87;;;;;;;3.73;56.98;103197.61;4983143;56;1143330;-69
2022/03/18 07:42:57;;;;;;;22.63;12.07;;;;;;;3.95;55.86;103214.06;4982957;57;1138817;-69
2022/03/18 07:48:09;;;;;;;29.27;11.17;;;;;;;4.20;57.38;103213.85;4982637;57;1138831;-68
2022/03/18 07:53:14;;;;;;;20.60;11.00;;;;;;;4.62;56.43;103213.47;4982745;57;1138889;-69
2022/03/18 07:58:20;;;;;;;33.73;14.23;;;;;;;5.05;53.28;103212.13;4983010;57;1138885;-69
2022/03/18 08:03:26;;;;;;;28.27;11.10;;;;;;;5.44;52.59;103214.72;4982261;56;1138824;-69
2022/03/18 08:08:32;;;;;;;17.07;9.33;;;;;;;5.73;50.17;103199.00;4982905;57;1139210;-69
2022/03/18 08:13:38;;;;;;;20.07;9.97;;;;;;;5.92;51.93;103232.02;4982045;57;1136897;-69
2022/03/18 08:18:44;;;;;;;18.80;9.73;;;;;;;6.21;51.31;103227.63;4982153;56;1136729;-68
2022/03/18 08:23:50;;;;;;;22.27;10.18;;;;;;;6.40;46.94;103230.37;4982229;56;1136866;-68
2022/03/18 08:28:57;;;;;;;23.27;9.73;;;;;;;6.52;46.93;103236.73;4998378;56;1138997;-69
2022/03/18 08:34:03;;;;;;;18.40;9.20;;;;;;;6.63;46.62;103250.55;4981034;57;1136813;-69
2022/03/18 08:39:09;;;;;;;21.03;8.70;;;;;;;6.73;46.80;103254.32;4982483;57;1136744;-69
2022/03/18 08:44:19;;;;;;;18.27;9.57;;;;;;;6.84;43.47;103257.65;4979575;56;1137176;-69
2022/03/18 08:49:22;;;;;;;29.70;10.43;;;;;;;6.95;43.78;103258.31;4906590;58;1137025;-69
2022/03/18 08:54:28;;;;;;;20.43;9.33;;;;;;;7.12;44.30;103257.54;5106349;56;1138772;-69
2022/03/18 08:59:34;;;;;;;26.07;9.00;;;;;;;7.23;43.59;103264.77;5095613;57;1141144;-71
2022/03/18 09:04:42;;;;;;;16.93;9.45;;;;;;;7.39;41.87;103257.43;5095498;57;1136877;-69
2022/03/18 09:09:48;;;;;;;23.30;11.93;;;;;;;7.44;42.41;103259.53;5096254;57;1136862;-70
2022/03/18 09:14:54;;;;;;;18.87;10.10;;;;;;;7.51;43.10;103263.75;5095762;57;1138722;-69
2022/03/18 09:20:00;;;;;;;16.90;8.77;;;;;;;7.66;42.54;103268.69;5095980;57;1138928;-69
2022/03/18 09:25:07;;;;;;;19.87;8.37;;;;;;;7.70;40.83;103278.27;5107922;56;1136927;-69
2022/03/18 09:30:14;;;;;;;15.70;8.00;;;;;;;7.71;39.15;103281.33;5129020;55;1136885;-69
2022/03/18 09:35:21;;;;;;;11.37;7.17;;;;;;;7.77;38.44;103282.97;5129439;55;1136917;-70
2022/03/18 09:40:27;;;;;;;11.83;6.50;;;;;;;7.89;37.75;103288.41;5129206;55;1136884;-69
2022/03/18 09:45:37;;;;;;;13.13;7.10;;;;;;;7.97;34.87;103291.73;5129032;55;1136994;-69
2022/03/18 09:50:43;;;;;;;12.63;6.92;;;;;;;7.97;34.87;103291.73;5129208;55;1136966;-69
2022/03/18 09:55:56;;;;;;;17.40;9.83;;;;;;;7.95;35.43;103294.84;5129147;55;1136926;-69
2022/03/18 10:01:01;;;;;;;12.35;6.62;;;;;;;7.95;35.86;103306.70;5128436;55;1137159;-70
2022/03/18 10:06:07;;;;;;;20.23;11.47;;;;;;;8.04;34.43;103292.02;5128877;55;1137172;-70
2022/03/18 10:11:31;;;;;;;13.20;8.10;;;;;;;8.10;36.50;103300.64;5114935;55;1138987;-69
2022/03/18 10:16:43;;;;;;;16.43;7.00;;;;;;;8.17;35.23;103307.09;5076287;56;1136998;-69
2022/03/18 10:22:02;;;;;;;26.23;8.37;;;;;;;8.28;37.32;103318.25;5096844;56;1136818;-70
2022/03/18 10:27:19;;;;;;;21.23;11.37;;;;;;;8.50;35.60;103318.66;5146608;56;1136794;-70
2022/03/18 10:32:31;;;;;;;19.03;6.87;;;;;;;8.71;34.74;103316.79;5181998;56;1138657;-70
2022/03/18 10:37:45;;;;;;;16.45;6.40;;;;;;;9.00;38.19;103315.62;5162186;56;1136943;-70
2022/03/18 10:43:02;;;;;;;23.45;9.60;;;;;;;9.30;34.25;103324.94;5177324;56;1136810;-70
2022/03/18 10:48:17;;;;;;;21.17;6.80;;;;;;;9.49;33.68;103329.64;5180853;55;1172608;-70
2022/03/18 10:53:26;;;;;;;11.07;6.47;;;;;;;9.63;34.18;103325.28;5181897;56;1136804;-70
2022/03/18 10:58:32;;;;;;;17.23;6.40;;;;;;;9.68;33.20;103338.37;5198008;55;1138795;-70
2022/03/18 11:03:39;;;;;;;21.67;7.40;;;;;;;9.80;32.67;103337.55;5206578;55;1138760;-70
2022/03/18 11:08:48;;;;;;;11.65;6.30;;;;;;;9.82;32.51;103334.87;5206236;55;1139081;-70
2022/03/18 11:14:04;;;;;;;18.67;6.55;;;;;;;9.73;30.09;103332.05;5139893;55;1138917;-71
2022/03/18 11:19:14;;;;;;;17.27;7.90;;;;;;;9.64;31.02;103325.69;5129324;55;1136787;-70
2022/03/18 11:24:24;;;;;;;17.50;7.17;;;;;;;9.62;31.55;103331.50;5131625;55;1136804;-70
2022/03/18 11:29:31;;;;;;;10.30;5.03;;;;;;;9.70;29.24;103339.20;5131539;55;1136725;-71
2022/03/18 11:35:01;;;;;;;13.00;5.30;;;;;;;9.81;30.08;103343.70;5133055;55;1138879;-72
2022/03/18 11:40:30;;;;;;;9.07;5.17;;;;;;;10.06;31.67;103350.47;5126687;55;1138989;-70
2022/03/18 11:45:38;;;;;;;16.83;5.53;;;;;;;10.23;30.15;103343.76;5128699;55;1139115;-70
2022/03/18 11:50:45;;;;;;;31.60;12.95;;;;;;;10.39;28.63;103345.95;5128409;55;1141137;-70
2022/03/18 11:55:56;;;;;;;8.87;5.17;;;;;;;10.45;28.52;103349.25;5127848;55;1143136;-70
2022/03/18 12:01:02;;;;;;;11.87;6.13;;;;;;;10.57;30.64;103354.14;5125126;55;1138886;-70
2022/03/18 12:06:07;;;;;;;7.63;5.30;;;;;;;10.84;30.15;103348.42;5133319;55;1141065;-70
2022/03/18 12:11:38;;;;;;;8.63;5.10;;;;;;;10.92;27.43;103341.06;5128146;55;1138808;-70
2022/03/18 12:16:45;;;;;;;25.57;6.30;;;;;;;11.07;31.79;103337.48;5159287;55;1138675;-70
2022/03/18 12:21:51;;;;;;;9.28;5.67;;;;;;;11.10;27.65;103331.63;5139827;55;1141075;-70
2022/03/18 12:26:57;;;;;;;9.55;6.17;;;;;;;11.12;28.09;103337.73;5192314;55;1138902;-71
2022/03/18 12:32:13;;;;;;;9.93;4.87;;;;;;;11.19;28.43;103333.08;5127784;56;1138844;-71
2022/03/18 12:37:22;;;;;;;8.00;4.13;;;;;;;11.38;30.14;103334.16;5159651;55;1138846;-70
2022/03/18 12:42:28;;;;;;;10.40;5.87;;;;;;;11.45;28.68;103329.05;5127662;55;1138747;-69
2022/03/18 12:47:34;;;;;;;22.47;12.53;;;;;;;11.54;29.83;103322.08;5118991;55;1141072;-70
2022/03/18 12:52:45;;;;;;;14.23;6.33;;;;;;;11.60;26.35;103318.34;5092596;56;1142940;-69
2022/03/18 12:57:51;;;;;;;12.58;5.87;;;;;;;11.59;27.69;103312.63;5128285;55;1140830;-70
2022/03/18 13:02:57;;;;;;;15.58;6.12;;;;;;;11.76;29.47;103312.04;5128380;56;1140979;-70
2022/03/18 13:08:10;;;;;;;10.40;6.57;;;;;;;11.93;29.69;103314.42;5138141;55;1140785;-71
2022/03/18 13:13:16;;;;;;;14.33;5.87;;;;;;;12.00;26.67;103308.89;5158926;55;1141007;-70
2022/03/18 13:18:22;;;;;;;16.33;6.10;;;;;;;12.10;29.57;103303.61;5134032;55;1140761;-70
2022/03/18 13:23:29;;;;;;;13.97;5.43;;;;;;;12.26;30.11;103310.90;5139744;55;1141073;-70
2022/03/18 13:28:36;;;;;;;16.60;5.43;;;;;;;12.28;26.09;103302.88;5140169;55;1140843;-70
2022/03/18 13:33:45;;;;;;;11.77;6.10;;;;;;;12.20;27.36;103295.24;5128775;55;1142581;-70
2022/03/18 13:38:55;;;;;;;28.23;6.30;;;;;;;12.18;27.81;103293.11;5128350;55;1140941;-70
2022/03/18 13:44:01;;;;;;;15.23;5.93;;;;;;;12.31;27.59;103295.67;5129290;55;1140873;-70
2022/03/18 13:49:13;;;;;;;12.73;5.43;;;;;;;12.32;26.25;103293.41;5145055;55;1140805;-70
2022/03/18 13:54:23;;;;;;;8.45;5.05;;;;;;;12.32;27.06;103297.39;5158912;55;1140852;-70
2022/03/18 13:59:31;;;;;;;12.53;5.10;;;;;;;12.31;25.07;103293.01;5164786;55;1138975;-69
2022/03/18 14:04:46;;;;;;;9.90;4.80;;;;;;;12.31;25.75;103307.61;5118101;55;1140993;-71
2022/03/18 14:10:03;;;;;;;13.90;5.83;;;;;;;12.35;27.33;103292.89;5080899;55;1138987;-71
2022/03/18 14:15:18;;;;;;;12.50;5.50;;;;;;;12.48;25.13;103293.65;5084561;55;1140959;-70
2022/03/18 14:20:26;;;;;;;29.90;13.83;;;;;;;12.56;25.38;103297.30;5043884;56;1140954;-71
2022/03/18 14:25:32;;;;;;;18.47;5.60;;;;;;;12.51;26.51;103293.53;5059948;55;1143007;-71
2022/03/18 14:31:02;;;;;;;23.13;13.90;;;;;;;12.58;27.08;103284.83;5119733;55;1141113;-70
2022/03/18 14:36:08;;;;;;;17.83;5.23;;;;;;;12.58;26.04;103281.70;5137205;55;1143054;-70
2022/03/18 14:41:14;;;;;;;17.50;5.90;;;;;;;12.48;25.29;103287.47;5144997;55;1141033;-70
2022/03/18 14:46:20;;;;;;;15.97;8.17;;;;;;;12.49;26.82;103303.80;5133547;55;1141085;-71
2022/03/18 14:51:26;;;;;;;10.07;6.87;;;;;;;12.38;25.54;103312.65;5068936;56;1140979;-70
2022/03/18 14:56:32;;;;;;;9.60;6.33;;;;;;;12.28;23.52;103315.69;5058440;56;1141220;-70
2022/03/18 15:01:38;;;;;;;16.83;6.67;;;;;;;12.22;25.98;103307.95;5080797;55;1139001;-70
2022/03/18 15:06:43;;;;;;;18.30;6.70;;;;;;;12.27;27.18;103309.97;5013939;56;1141032;-70
2022/03/18 15:11:49;;;;;;;23.00;10.63;;;;;;;12.28;25.88;103306.40;5088336;56;1141410;-70
2022/03/18 15:16:55;;;;;;;12.43;5.95;;;;;;;12.25;26.23;103326.42;5094068;55;1143150;-70
2022/03/18 15:22:01;;;;;;;145.67;12.47;;;;;;;12.14;26.00;103326.45;5091751;57;1141042;-70
2022/03/18 15:27:07;;;;;;;20.90;9.20;;;;;;;12.10;27.22;103334.98;5066644;56;1145158;-70
2022/03/18 15:32:13;;;;;;;20.67;8.40;;;;;;;12.04;27.11;103341.01;5123575;56;1141019;-70
2022/03/18 15:37:23;;;;;;;21.03;6.03;;;;;;;11.95;27.39;103339.09;5027278;57;1140969;-71
2022/03/18 15:42:26;;;;;;;64.00;10.03;;;;;;;11.84;27.27;103351.05;5043485;56;1140983;-71
2022/03/18 15:47:32;;;;;;;17.13;9.30;;;;;;;11.84;27.27;103351.05;5044769;56;1142932;-70
2022/03/18 15:52:37;;;;;;;23.03;11.70;;;;;;;11.84;27.34;103358.54;5047210;56;1141124;-70
2022/03/18 15:57:43;;;;;;;17.87;7.53;;;;;;;11.84;27.43;103354.56;5082795;55;1150557;-70
2022/03/18 16:02:50;;;;;;;22.58;9.48;;;;;;;11.90;28.63;103354.34;5130335;55;1141115;-70
2022/03/18 16:07:55;;;;;;;32.13;13.15;;;;;;;11.86;27.35;103350.53;5141972;55;1141196;-70
2022/03/18 16:13:03;;;;;;;25.35;9.33;;;;;;;11.74;27.53;103345.66;5084324;56;1143203;-71
2022/03/18 16:18:08;;;;;;;74.03;28.90;;;;;;;11.62;27.52;103355.77;5082051;55;1140742;-70
2022/03/18 16:23:14;;;;;;;39.30;17.00;;;;;;;11.51;27.79;103345.17;5076109;55;1143020;-70
2022/03/18 16:28:20;;;;;;;30.63;14.33;;;;;;;11.36;27.63;103349.23;5100595;56;1142896;-70
2022/03/18 16:33:26;;;;;;;14.67;7.87;;;;;;;11.26;28.07;103359.31;5081563;55;1142961;-70
2022/03/18 16:38:35;;;;;;;41.90;23.10;;;;;;;11.10;28.64;103363.41;5120789;55;1140945;-70
2022/03/18 16:43:39;;;;;;;68.10;17.90;;;;;;;10.96;28.74;103356.86;5094835;56;1142841;-72
2022/03/18 16:54:09;;;;;;;164.60;73.22;;;;;;;10.73;29.80;103359.80;5037033;56;1143242;-70
2022/03/18 16:59:14;;;;;;;100.40;44.07;;;;;;;10.70;29.50;103352.41;5047045;56;1145064;-69
2022/03/18 17:04:24;;;;;;;117.83;56.43;;;;;;;10.60;29.93;103349.67;5032401;55;1145297;-70
2022/03/18 17:09:31;;;;;;;173.87;69.30;;;;;;;10.57;30.55;103353.28;5031824;55;1144985;-70
2022/03/18 17:14:37;;;;;;;102.83;40.07;;;;;;;10.53;31.17;103349.02;5032245;55;1145372;-70
2022/03/18 17:19:43;;;;;;;169.40;73.20;;;;;;;10.45;31.42;103355.00;5032160;56;1145156;-71
2022/03/18 17:24:49;;;;;;;198.25;100.62;;;;;;;10.33;32.02;103352.30;5033800;55;1154839;-70
2022/03/18 17:29:56;;;;;;;246.07;82.17;;;;;;;10.16;32.61;103368.65;4940923;57;1147167;-70
2022/03/18 17:35:03;;;;;;;268.12;74.35;;;;;;;10.03;32.80;103372.58;5105835;56;1145497;-70
2022/03/18 17:40:10;;;;;;;238.87;60.43;;;;;;;9.87;33.17;103377.91;5021439;57;1143304;-69
2022/03/18 17:45:16;;;;;;;149.83;44.83;;;;;;;9.71;33.90;103381.89;5128646;56;1149857;-70
2022/03/18 17:50:22;;;;;;;150.87;43.63;;;;;;;9.58;34.29;103389.76;5033041;57;1140897;-71
2022/03/18 17:55:29;;;;;;;97.00;30.40;;;;;;;9.42;34.42;103394.59;5128174;56;1140947;-70
2022/03/18 18:00:35;;;;;;;122.73;26.13;;;;;;;9.26;35.10;103414.39;5025036;57;1138946;-70
2022/03/18 18:05:42;;;;;;;98.63;33.83;;;;;;;9.03;35.30;103408.36;5118755;56;1141027;-70
2022/03/18 18:10:49;;;;;;;218.20;45.23;;;;;;;8.75;35.55;103414.77;5023560;57;1138983;-70
2022/03/18 18:16:01;;;;;;;240.10;73.52;;;;;;;8.53;35.72;103424.11;5118760;56;1141472;-70
2022/03/18 18:26:26;;;;;;;226.70;56.92;;;;;;;8.30;36.80;103422.80;5088370;56;1141193;-70
2022/03/18 18:31:32;;;;;;;213.83;60.20;;;;;;;8.15;36.81;103427.53;4908839;58;1141071;-70
2022/03/18 18:36:39;;;;;;;200.20;67.37;;;;;;;7.93;37.57;103440.30;4850181;59;1141031;-70
2022/03/18 18:41:47;;;;;;;230.22;72.08;;;;;;;7.88;37.82;103441.70;4925681;56;1141053;-73
2022/03/18 18:46:53;;;;;;;188.10;60.90;;;;;;;7.85;38.13;103432.97;4906642;58;1141208;-71
2022/03/18 18:52:00;;;;;;;242.87;63.13;;;;;;;7.76;38.92;103443.26;4842203;57;1140998;-70
2022/03/18 18:57:07;;;;;;;241.47;55.07;;;;;;;7.55;39.25;103447.15;4870838;57;1141233;-70
2022/03/18 19:02:16;;;;;;;287.80;53.57;;;;;;;7.29;39.37;103438.86;4936882;57;1141021;-71
2022/03/18 19:07:21;;;;;;;257.10;48.73;;;;;;;7.22;39.65;103451.69;4976623;57;1141058;-70
2022/03/18 19:12:27;;;;;;;223.30;61.53;;;;;;;7.00;39.80;103453.37;5046613;57;1141231;-70
2022/03/18 19:17:34;;;;;;;202.60;62.50;;;;;;;6.57;40.03;103461.48;5029661;57;1141012;-70
2022/03/18 19:22:41;;;;;;;229.90;76.80;;;;;;;6.43;40.54;103455.51;5006481;57;1140964;-70
2022/03/18 19:27:47;;;;;;;253.50;84.53;;;;;;;6.38;41.17;103452.09;5042739;57;1140971;-71
2022/03/18 19:32:52;;;;;;;257.80;87.40;;;;;;;6.45;41.57;103453.30;5030868;56;1148251;-70
2022/03/18 19:37:59;;;;;;;238.97;86.67;;;;;;;6.40;41.36;103459.08;5031672;56;1141253;-70
2022/03/18 19:43:07;;;;;;;200.60;71.63;;;;;;;6.30;41.50;103456.13;5031049;56;1141087;-70
2022/03/18 19:48:14;;;;;;;249.60;82.43;;;;;;;6.22;41.84;103456.23;5013216;56;1140929;-70
2022/03/18 19:53:22;;;;;;;190.40;63.23;;;;;;;6.17;42.18;103462.42;5094273;57;1141165;-70
2022/03/18 20:03:53;;;;;;;179.27;72.33;;;;;;;5.97;42.50;103460.89;5094394;57;1143470;-70
2022/03/18 20:08:58;;;;;;;164.57;70.55;;;;;;;5.88;42.95;103466.67;5089550;57;1141026;-69
2022/03/18 20:14:06;;;;;;;186.35;76.37;;;;;;;5.79;43.34;103464.16;5065898;56;1141152;-71
2022/03/18 20:19:13;;;;;;;237.83;92.87;;;;;;;5.71;43.68;103479.98;5030775;56;1140864;-70
2022/03/18 20:24:19;;;;;;;312.40;118.35;;;;;;;5.62;43.88;103478.33;5030694;56;1140792;-70
2022/03/18 20:29:25;;;;;;;349.93;135.37;;;;;;;5.54;44.66;103481.45;4990600;56;1142890;-70
2022/03/18 20:34:32;;;;;;;368.70;142.73;;;;;;;5.42;44.73;103478.08;4979742;58;1142999;-70
2022/03/18 20:39:38;;;;;;;368.67;136.53;;;;;;;5.37;45.12;103485.98;5061588;56;1143042;-71
2022/03/18 20:44:44;;;;;;;233.83;99.90;;;;;;;5.27;45.23;103475.14;5061979;56;1142883;-70
2022/03/18 20:49:49;;;;;;;173.03;72.83;;;;;;;5.15;45.36;103476.56;5042474;56;1141002;-70
2022/03/18 20:54:55;;;;;;;254.33;98.27;;;;;;;5.03;45.42;103474.03;5062333;56;1140876;-70
2022/03/18 21:00:01;;;;;;;330.10;127.83;;;;;;;4.88;45.52;103482.88;4980172;57;1140806;-70
2022/03/18 21:05:07;;;;;;;332.83;135.23;;;;;;;4.79;45.97;103482.48;4982831;57;1143099;-70
2022/03/18 21:10:13;;;;;;;330.50;131.83;;;;;;;4.74;46.43;103482.06;4982506;57;1142938;-69
2022/03/18 21:15:20;;;;;;;283.07;119.80;;;;;;;4.72;46.46;103474.68;4978537;58;1142967;-70
2022/03/18 21:20:25;;;;;;;448.13;163.53;;;;;;;4.71;46.73;103462.01;4970762;57;1142939;-70
2022/03/18 21:30:55;;;;;;;564.50;232.77;;;;;;;4.45;46.80;103462.57;4928504;58;1143127;-70
2022/03/18 21:36:01;;;;;;;499.37;199.07;;;;;;;4.19;47.25;103465.31;4853832;58;1143466;-71
2022/03/18 21:41:08;;;;;;;412.90;149.07;;;;;;;4.08;48.19;103475.84;4836897;58;1143159;-71
2022/03/18 21:46:14;;;;;;;367.93;137.43;;;;;;;3.97;48.87;103466.29;4817136;58;1143141;-70
2022/03/18 21:51:21;;;;;;;310.37;126.60;;;;;;;3.86;49.45;103467.17;4890220;58;1143164;-70
2022/03/18 21:56:27;;;;;;;256.47;116.77;;;;;;;3.88;49.46;103465.86;4822681;59;1143192;-70
2022/03/18 22:01:33;;;;;;;275.47;111.87;;;;;;;3.93;49.67;103464.11;4913229;58;1143199;-70
2022/03/18 22:06:39;;;;;;;273.80;113.47;;;;;;;3.76;49.48;103459.35;4926451;57;1143331;-70
2022/03/18 22:11:45;;;;;;;271.03;110.30;;;;;;;3.66;49.71;103469.42;4913868;58;1143196;-70
2022/03/18 22:16:52;;;;;;;254.80;110.70;;;;;;;3.70;50.19;103462.84;4853027;58;1143195;-71
2022/03/18 22:21:59;;;;;;;209.50;90.15;;;;;;;3.66;50.47;103461.13;4818887;59;1143043;-70
2022/03/18 22:27:05;;;;;;;183.90;81.70;;;;;;;3.60;50.41;103458.51;5032768;56;1140940;-70
2022/03/18 22:32:11;;;;;;;202.83;81.23;;;;;;;3.37;50.26;103458.52;5033128;56;1140922;-69
2022/03/18 22:37:16;;;;;;;154.17;63.63;;;;;;;2.77;51.17;103458.05;5032978;57;1141033;-69
2022/03/18 22:42:22;;;;;;;139.00;57.67;;;;;;;2.38;52.20;103462.76;5052577;56;1141062;-70
2022/03/18 22:47:28;;;;;;;173.87;67.90;;;;;;;2.44;52.96;103462.33;5053819;56;1141024;-70
2022/03/18 22:52:36;;;;;;;178.30;68.67;;;;;;;2.64;53.60;103458.47;4992442;57;1140993;-70
2022/03/18 22:57:44;;;;;;;546.57;184.37;;;;;;;2.79;53.80;103453.27;4979778;58;1141034;-69
2022/03/18 23:02:51;;;;;;;216.10;86.67;;;;;;;2.89;53.65;103459.84;4984555;57;1143028;-71
2022/03/18 23:07:57;;;;;;;198.38;82.55;;;;;;;2.94;53.68;103447.19;5022158;56;1140849;-69
2022/03/18 23:13:02;;;;;;;199.75;76.95;;;;;;;2.93;53.61;103435.42;5065107;56;1140947;-69
2022/03/18 23:18:08;;;;;;;125.12;46.73;;;;;;;2.85;53.75;103427.59;5072534;56;1140914;-69
2022/03/18 23:23:14;;;;;;;162.97;67.43;;;;;;;2.76;54.66;103432.79;5121407;56;1140976;-69
2022/03/18 23:28:20;;;;;;;180.83;73.53;;;;;;;2.11;54.67;103426.55;4991024;56;1140926;-70
2022/03/18 23:33:27;;;;;;;172.63;70.23;;;;;;;2.03;55.64;103448.25;5009322;57;1140923;-70
2022/03/18 23:38:32;;;;;;;182.77;69.87;;;;;;;1.89;55.94;103452.09;4978495;57;1141083;-67